createdAt,value
2023-01-20T00:01:29.882Z,97488.66
2023-01-20T00:06:32.134Z,97490.69
2023-01-20T00:11:34.108Z,97501.88
2023-01-20T00:16:36.317Z,97503.44
2023-01-20T00:21:38.158Z,97505.94
2023-01-20T00:26:40.051Z,97504.53
2023-01-20T00:31:42.102Z,97512.84
2023-01-20T00:36:44.107Z,97517.13
2023-01-20T00:41:45.916Z,97529.91
2023-01-20T00:46:47.771Z,97533.09
2023-01-20T00:51:49.780Z,97543.78
2023-01-20T00:56:51.609Z,97543.63
2023-01-20T01:01:53.700Z,97556.53
2023-01-20T01:06:55.761Z,97568.00
2023-01-20T01:11:57.583Z,97577.13
2023-01-20T01:16:59.449Z,97587.84
2023-01-20T01:22:01.249Z,97592.28
2023-01-20T01:27:04.570Z,97592.13
2023-01-20T01:32:07.366Z,97597.34
2023-01-20T01:37:09.206Z,97604.56
2023-01-20T01:42:16.413Z,97606.78
2023-01-20T01:47:18.414Z,97615.38
2023-01-20T01:52:21.546Z,97606.50
2023-01-20T01:57:23.513Z,97613.63
2023-01-20T02:02:25.602Z,97611.53
2023-01-20T02:07:27.735Z,97614.91
2023-01-20T02:12:29.983Z,97615.66
2023-01-20T02:18:27.023Z,97622.66
2023-01-20T02:23:37.950Z,97621.56
2023-01-20T02:29:12.164Z,97622.94
2023-01-20T02:34:35.345Z,97625.03
2023-01-20T02:39:49.510Z,97631.63
2023-01-20T02:45:06.553Z,97636.66
2023-01-20T02:50:14.510Z,97642.03
2023-01-20T02:55:29.031Z,97642.97
2023-01-20T03:00:41.448Z,97642.50
2023-01-20T03:05:49.171Z,97656.19
2023-01-20T03:10:54.689Z,97665.19
2023-01-20T03:15:56.469Z,97668.81
2023-01-20T03:20:59.786Z,97659.03
2023-01-20T03:26:08.756Z,97662.84
2023-01-20T03:31:20.319Z,97681.44
2023-01-20T03:36:25.337Z,97684.13
2023-01-20T03:41:38.382Z,97680.19
2023-01-20T03:46:52.093Z,97695.81
2023-01-20T03:52:00.108Z,97691.69
2023-01-20T03:57:08.469Z,97697.22
2023-01-20T04:02:11.878Z,97705.72
2023-01-20T04:07:20.614Z,97710.94
2023-01-20T04:12:22.668Z,97708.25
2023-01-20T04:17:29.455Z,97721.47
2023-01-20T04:22:34.257Z,97710.47
2023-01-20T04:27:36.111Z,97721.47
2023-01-20T04:32:38.218Z,97733.44
2023-01-20T04:37:40.229Z,97739.59
2023-01-20T04:42:42.124Z,97743.38
2023-01-20T04:47:44.652Z,97744.78
2023-01-20T04:52:46.568Z,97751.41
2023-01-20T04:57:48.556Z,97764.66
2023-01-20T05:02:50.589Z,97766.38
2023-01-20T05:07:53.466Z,97771.91
2023-01-20T05:12:55.319Z,97776.63
2023-01-20T05:17:57.157Z,97786.72
2023-01-20T05:23:01.286Z,97784.03
2023-01-20T05:28:03.575Z,97786.41
2023-01-20T05:33:05.406Z,97799.31
2023-01-20T05:38:07.283Z,97796.78
2023-01-20T05:43:09.117Z,97804.66
2023-01-20T05:48:10.974Z,97811.94
2023-01-20T05:53:12.804Z,97816.97
2023-01-20T05:58:14.952Z,97819.66
2023-01-20T06:03:16.797Z,97819.78
2023-01-20T06:08:18.691Z,97828.31
2023-01-20T06:13:20.690Z,97829.44
2023-01-20T06:18:23.992Z,97827.22
2023-01-20T06:23:26.830Z,97838.41
2023-01-20T06:28:29.144Z,97843.75
2023-01-20T06:33:31.902Z,97852.28
2023-01-20T06:38:35.849Z,97848.97
2023-01-20T06:43:40.337Z,97860.19
2023-01-20T06:48:43.368Z,97863.94
2023-01-20T06:53:46.187Z,97867.38
2023-01-20T06:58:48.123Z,97874.47
2023-01-20T07:03:50.315Z,97884.09
2023-01-20T07:08:52.270Z,97887.25
2023-01-20T07:13:54.150Z,97898.25
2023-01-20T07:19:12.264Z,97899.31
2023-01-20T07:24:14.191Z,97910.56
2023-01-20T07:29:17.851Z,97923.00
2023-01-20T07:34:19.848Z,97941.97
2023-01-20T07:39:21.737Z,97946.06
2023-01-20T07:44:23.589Z,97953.94
2023-01-20T07:49:25.512Z,97954.09
2023-01-20T07:54:27.395Z,97959.13
2023-01-20T07:59:30.177Z,97972.06
2023-01-20T08:04:33.942Z,97979.47
2023-01-20T08:09:35.782Z,97975.38
2023-01-20T08:14:37.945Z,97981.03
2023-01-20T08:19:39.924Z,97991.28
2023-01-20T08:24:42.332Z,97995.56
2023-01-20T08:29:44.578Z,98003.59
2023-01-20T08:34:46.598Z,98013.34
2023-01-20T08:39:50.466Z,98022.16
2023-01-20T08:44:53.609Z,98026.19
2023-01-20T08:49:55.515Z,98029.69
2023-01-20T08:54:59.105Z,98033.84
2023-01-20T09:00:01.584Z,98039.81
2023-01-20T09:05:05.135Z,98041.03
2023-01-20T09:10:07.640Z,98048.50
2023-01-20T09:15:10.187Z,98056.28
2023-01-20T09:20:12.637Z,98049.00
2023-01-20T09:25:15.169Z,98054.88
2023-01-20T09:30:17.649Z,98058.84
2023-01-20T09:35:19.607Z,98070.50
2023-01-20T09:40:50.556Z,98066.41
2023-01-20T09:46:00.483Z,98071.78
2023-01-20T09:51:25.554Z,98065.97
2023-01-20T09:56:31.040Z,98072.47
2023-01-20T10:01:35.890Z,98071.50
2023-01-20T10:07:03.840Z,98075.16
2023-01-20T10:12:06.165Z,98070.59
2023-01-20T10:17:21.999Z,98075.94
2023-01-20T10:22:41.343Z,98080.00
2023-01-20T10:27:52.770Z,98080.16
2023-01-20T10:32:59.023Z,98082.22
2023-01-20T10:38:01.260Z,98081.41
2023-01-20T10:43:12.491Z,98092.13
2023-01-20T10:48:20.758Z,98089.50
2023-01-20T10:53:37.635Z,98088.88
2023-01-20T10:58:45.391Z,98099.59
2023-01-20T11:03:49.042Z,98101.50
2023-01-20T11:08:51.204Z,98110.03
2023-01-20T11:13:53.590Z,98105.47
2023-01-20T11:19:04.145Z,98108.31
2023-01-20T11:24:36.981Z,98116.38
2023-01-20T11:29:43.266Z,98116.22
2023-01-20T11:34:49.757Z,98125.84
2023-01-20T11:39:54.165Z,98132.63
2023-01-20T11:45:15.349Z,98139.59
2023-01-20T11:50:28.438Z,98145.22
2023-01-20T11:55:30.340Z,98150.13
2023-01-20T12:00:40.433Z,98149.19
2023-01-20T12:05:48.439Z,98164.31
2023-01-20T12:10:51.277Z,98164.78
2023-01-20T12:15:56.011Z,98173.63
2023-01-20T12:21:17.870Z,98176.59
2023-01-20T12:26:22.704Z,98176.59
2023-01-20T12:31:24.883Z,98184.34
2023-01-20T12:36:48.231Z,98180.41
2023-01-20T12:42:11.193Z,98186.72
2023-01-20T12:47:29.614Z,98203.78
2023-01-20T12:53:04.048Z,98199.00
2023-01-20T12:58:22.655Z,98200.00
2023-01-20T13:03:43.094Z,98205.97
2023-01-20T13:09:00.141Z,98207.56
2023-01-20T13:14:07.891Z,98210.84
2023-01-20T13:19:15.551Z,98216.81
2023-01-20T13:24:29.343Z,98215.72
2023-01-20T13:29:40.158Z,98219.88
2023-01-20T13:34:42.313Z,98228.81
2023-01-20T13:39:48.348Z,98226.44
2023-01-20T13:45:13.054Z,98233.22
2023-01-20T13:50:35.388Z,98232.44
2023-01-20T13:55:46.293Z,98240.81
2023-01-20T14:00:50.936Z,98243.59
2023-01-20T14:05:55.491Z,98249.88
2023-01-20T14:11:19.396Z,98254.28
2023-01-20T14:16:36.811Z,98257.56
2023-01-20T14:21:41.327Z,98267.31
2023-01-20T14:26:43.218Z,98272.50
2023-01-20T14:31:46.174Z,98277.03
2023-01-20T14:36:48.381Z,98285.25
2023-01-20T14:42:01.186Z,98283.03
2023-01-20T14:47:03.765Z,98296.00
2023-01-20T14:52:07.627Z,98298.88
2023-01-20T14:57:20.840Z,98308.00
2023-01-20T15:02:30.778Z,98317.34
2023-01-20T15:07:32.810Z,98330.44
2023-01-20T15:12:46.969Z,98336.59
2023-01-20T15:18:23.705Z,98341.16
2023-01-20T15:23:36.821Z,98345.53
2023-01-20T15:28:43.074Z,98354.78
2023-01-20T15:33:45.236Z,98363.44
2023-01-20T15:38:47.805Z,98365.66
2023-01-20T15:43:51.454Z,98378.75
2023-01-20T15:48:53.275Z,98370.41
2023-01-20T15:53:55.103Z,98380.63
2023-01-20T15:58:58.130Z,98368.81
2023-01-20T16:04:00.074Z,98378.53
2023-01-20T16:09:04.048Z,98386.69
2023-01-20T16:14:05.876Z,98398.59
2023-01-20T16:19:09.776Z,98400.19
2023-01-20T16:24:12.315Z,98408.75
2023-01-20T16:29:14.155Z,98412.00
2023-01-20T16:34:15.982Z,98423.63
2023-01-20T16:39:17.912Z,98427.19
2023-01-20T16:44:19.783Z,98441.50
2023-01-20T16:49:22.782Z,98450.94
2023-01-20T16:54:24.723Z,98457.59
2023-01-20T16:59:26.623Z,98469.47
2023-01-20T17:04:29.688Z,98473.53
2023-01-20T17:09:31.525Z,98474.84
2023-01-20T17:14:33.531Z,98477.03
2023-01-20T17:19:35.447Z,98486.94
2023-01-20T17:24:39.343Z,98485.34
2023-01-20T17:29:41.263Z,98485.94
2023-01-20T17:34:43.120Z,98487.13
2023-01-20T17:39:46.135Z,98501.13
2023-01-20T17:44:48.104Z,98503.00
2023-01-20T17:49:49.962Z,98517.28
2023-01-20T17:54:52.234Z,98519.47
2023-01-20T17:59:54.158Z,98515.50
2023-01-20T18:04:55.980Z,98522.22
2023-01-20T18:09:57.845Z,98521.50
2023-01-20T18:14:59.701Z,98534.91
2023-01-20T18:20:01.573Z,98536.28
2023-01-20T18:25:03.556Z,98544.41
2023-01-20T18:30:05.832Z,98542.22
2023-01-20T18:35:08.039Z,98547.56
2023-01-20T18:40:11.119Z,98544.41
2023-01-20T18:45:12.951Z,98548.75
2023-01-20T18:50:16.652Z,98555.28
2023-01-20T18:55:18.681Z,98558.59
2023-01-20T19:00:20.684Z,98562.94
2023-01-20T19:05:22.949Z,98556.66
2023-01-20T19:10:25.640Z,98565.22
2023-01-20T19:15:28.268Z,98565.28
2023-01-20T19:20:30.654Z,98569.03
2023-01-20T19:25:32.918Z,98567.66
2023-01-20T19:30:38.212Z,98558.84
2023-01-20T19:35:42.188Z,98562.31
2023-01-20T19:40:46.282Z,98566.88
2023-01-20T19:45:49.469Z,98568.03
2023-01-20T19:50:51.556Z,98575.56
2023-01-20T19:55:53.915Z,98572.38
2023-01-20T20:00:56.251Z,98586.81
2023-01-20T20:05:58.250Z,98590.81
2023-01-20T20:11:00.145Z,98591.09
2023-01-20T20:16:03.884Z,98596.97
2023-01-20T20:21:06.885Z,98605.25
2023-01-20T20:26:12.205Z,98611.97
2023-01-20T20:31:14.668Z,98620.81
2023-01-20T20:36:16.727Z,98625.66
2023-01-20T20:41:18.809Z,98627.25
2023-01-20T20:46:20.916Z,98631.81
2023-01-20T20:51:26.137Z,98634.19
2023-01-20T20:56:32.151Z,98637.16
2023-01-20T21:01:35.448Z,98646.25
2023-01-20T21:06:37.652Z,98650.00
2023-01-20T21:11:42.164Z,98654.22
2023-01-20T21:16:44.968Z,98664.94
2023-01-20T21:21:46.874Z,98666.59
2023-01-20T21:26:48.724Z,98674.03
2023-01-20T21:31:50.688Z,98675.63
2023-01-20T21:36:52.645Z,98682.13
2023-01-20T21:41:54.568Z,98685.94
2023-01-20T21:46:57.981Z,98680.19
2023-01-20T21:52:18.370Z,98687.69
2023-01-20T21:57:21.268Z,98689.88
2023-01-20T22:02:23.396Z,98695.28
2023-01-20T22:07:25.860Z,98703.28
2023-01-20T22:12:29.067Z,98708.06
2023-01-20T22:17:31.134Z,98716.63
2023-01-20T22:22:32.940Z,98716.63
2023-01-20T22:27:34.776Z,98715.34
2023-01-20T22:32:36.589Z,98714.78
2023-01-20T22:37:38.398Z,98722.53
2023-01-20T22:42:40.252Z,98720.94
2023-01-20T22:47:42.103Z,98720.94
2023-01-20T22:52:43.955Z,98709.75
2023-01-20T22:57:45.779Z,98719.69
2023-01-20T23:02:47.601Z,98723.66
2023-01-20T23:07:49.458Z,98723.91
2023-01-20T23:12:51.959Z,98716.13
2023-01-20T23:17:53.878Z,98720.47
2023-01-20T23:22:55.708Z,98718.84
2023-01-20T23:27:57.569Z,98729.56
2023-01-20T23:32:59.537Z,98726.38
2023-01-20T23:38:01.358Z,98731.78
2023-01-20T23:43:03.279Z,98743.53
2023-01-20T23:48:05.533Z,98738.78
2023-01-20T23:53:07.399Z,98754.56
2023-01-20T23:58:09.516Z,98754.81
